Time;durP1;ratioP1;P1;durP2;ratioP2;P2;SDS_P1;SDS_P2;PMS_P1;PMS_P2;Temp;Humidity;BMP_temperature;BMP_pressure;BME280_temperature;BME280_humidity;BME280_pressure;Samples;Min_cycle;Max_cycle;Signal;HPM_P1;HPM_P2
2023/04/05 00:01:31;;;;;;;0.90;0.90;;;1.50;99.90;;;;;;6204846;23;20168;-81
2023/04/05 00:03:58;;;;;;;1.67;1.57;;;1.50;99.90;;;;;;6203963;23;20182;-85
2023/04/05 00:06:25;;;;;;;1.53;1.03;;;1.50;99.90;;;;;;6227351;23;20736;-83
2023/04/05 00:09:02;;;;;;;2.93;2.33;;;1.50;99.90;;;;;;6201832;23;20186;-82
2023/04/05 00:11:29;;;;;;;0.67;0.67;;;1.50;99.90;;;;;;6201219;23;20201;-83
2023/04/05 00:13:57;;;;;;;1.13;1.13;;;1.50;99.90;;;;;;6203268;23;20202;-83
2023/04/05 00:16:23;;;;;;;1.80;1.40;;;1.40;99.90;;;;;;6206076;23;20174;-82
2023/04/05 00:18:50;;;;;;;3.77;1.20;;;1.40;99.90;;;;;;6203603;23;20271;-82
2023/04/05 00:21:23;;;;;;;3.53;2.40;;;1.40;99.90;;;;;;6204770;23;20648;-86
2023/04/05 00:23:52;;;;;;;4.07;2.10;;;1.40;99.90;;;;;;6205959;23;20194;-83
2023/04/05 00:26:19;;;;;;;0.60;0.60;;;1.30;99.90;;;;;;6203832;23;20193;-82
2023/04/05 00:28:46;;;;;;;2.20;1.30;;;1.40;99.90;;;;;;6205527;23;20162;-84
2023/04/05 00:31:12;;;;;;;1.20;1.13;;;1.40;99.90;;;;;;6204645;23;20189;-82
2023/04/05 00:33:37;;;;;;;1.77;1.57;;;1.40;99.90;;;;;;6203963;23;20564;-82
2023/04/05 00:36:16;;;;;;;1.30;1.30;;;1.30;99.90;;;;;;6205790;23;20194;-82
2023/04/05 00:38:42;;;;;;;1.60;1.23;;;1.30;99.90;;;;;;6205575;23;20261;-85
2023/04/05 00:41:10;;;;;;;2.97;1.13;;;1.30;99.90;;;;;;6204312;23;20579;-82
2023/04/05 00:43:35;;;;;;;0.57;0.57;;;1.30;99.90;;;;;;6205398;23;20165;-84
2023/04/05 00:46:02;;;;;;;1.57;1.47;;;1.30;99.90;;;;;;6206090;23;20265;-84
2023/04/05 00:48:28;;;;;;;1.60;1.50;;;1.20;99.90;;;;;;6205469;23;20190;-84
2023/04/05 00:50:54;;;;;;;1.83;1.40;;;1.20;99.90;;;;;;6205496;23;20204;-83
2023/04/05 00:53:20;;;;;;;1.33;1.33;;;1.10;99.90;;;;;;6203433;23;20984;-84
2023/04/05 00:55:53;;;;;;;0.93;0.93;;;1.10;99.90;;;;;;6204371;23;20161;-82
2023/04/05 00:58:23;;;;;;;3.57;2.57;;;1.10;99.90;;;;;;6229631;23;20154;-84
2023/04/05 01:01:05;;;;;;;1.17;1.13;;;1.10;99.90;;;;;;6205431;23;20222;-81
2023/04/05 01:03:33;;;;;;;1.00;1.00;;;1.10;99.90;;;;;;6204402;23;20293;-81
2023/04/05 01:06:04;;;;;;;1.57;1.57;;;1.10;99.90;;;;;;6204968;23;20605;-84
2023/04/05 01:08:48;;;;;;;0.67;0.67;;;1.10;99.90;;;;;;6225779;23;21100;-82
2023/04/05 01:11:15;;;;;;;1.33;1.23;;;1.00;99.90;;;;;;6202420;23;20193;-83
2023/04/05 01:13:43;;;;;;;1.27;1.27;;;1.10;99.90;;;;;;6202137;23;20190;-82
2023/04/05 01:16:10;;;;;;;0.93;0.93;;;1.00;99.90;;;;;;6204444;23;20193;-82
2023/04/05 01:18:36;;;;;;;0.80;0.80;;;1.00;99.90;;;;;;6205476;23;20200;-82
2023/04/05 01:21:33;;;;;;;2.03;2.03;;;1.00;99.90;;;;;;6231990;23;20202;-82
2023/04/05 01:24:13;;;;;;;1.63;0.60;;;1.00;99.90;;;;;;6208232;23;20205;-83
2023/04/05 01:26:52;;;;;;;1.57;1.37;;;1.10;99.90;;;;;;6229885;23;20252;-86
2023/04/05 01:29:44;;;;;;;1.13;1.13;;;1.10;99.90;;;;;;6228319;23;20547;-84
2023/04/05 01:32:19;;;;;;;2.20;0.83;;;1.10;99.90;;;;;;6202875;23;20197;-83
2023/04/05 01:35:03;;;;;;;0.73;0.73;;;1.00;99.90;;;;;;6204281;23;20169;-85
2023/04/05 01:37:31;;;;;;;4.17;1.37;;;0.90;99.90;;;;;;6207603;23;20236;-83
2023/04/05 01:39:58;;;;;;;1.10;1.10;;;0.90;99.90;;;;;;6207084;23;20182;-86
2023/04/05 01:42:25;;;;;;;3.53;1.70;;;0.90;99.90;;;;;;6207393;23;20268;-83
2023/04/05 01:44:52;;;;;;;1.17;1.17;;;0.90;99.90;;;;;;6206873;23;20226;-83
2023/04/05 01:47:19;;;;;;;1.40;1.40;;;1.00;99.90;;;;;;6231154;23;20193;-82
2023/04/05 01:49:45;;;;;;;1.30;1.20;;;1.00;99.90;;;;;;6206504;23;20202;-85
2023/04/05 01:52:11;;;;;;;19.13;1.33;;;1.00;99.90;;;;;;6208888;23;20166;-82
2023/04/05 01:54:37;;;;;;;2.00;1.87;;;1.10;99.90;;;;;;6181347;23;20505;-82
2023/04/05 01:57:03;;;;;;;1.27;1.27;;;1.10;99.90;;;;;;6176385;23;20237;-83
2023/04/05 01:59:29;;;;;;;1.87;1.60;;;1.10;99.90;;;;;;6157790;23;20195;-83
2023/04/05 02:01:55;;;;;;;1.13;1.03;;;1.10;99.90;;;;;;6176273;23;20196;-84
2023/04/05 02:04:21;;;;;;;1.17;1.17;;;1.00;99.90;;;;;;6178385;23;20159;-82
2023/04/05 02:06:46;;;;;;;1.60;1.53;;;1.00;99.90;;;;;;6177734;23;20205;-83
2023/04/05 02:09:12;;;;;;;1.80;1.70;;;1.00;99.90;;;;;;6167577;23;20649;-84
2023/04/05 02:11:38;;;;;;;1.43;1.40;;;1.00;99.90;;;;;;6191662;23;20216;-83
2023/04/05 02:14:04;;;;;;;0.90;0.90;;;1.00;99.90;;;;;;6206147;23;20285;-86
2023/04/05 02:16:32;;;;;;;0.93;0.93;;;1.00;99.90;;;;;;6204629;23;20154;-83
2023/04/05 02:18:58;;;;;;;1.03;0.80;;;1.00;99.90;;;;;;6206782;23;20499;-83
2023/04/05 02:21:25;;;;;;;0.77;0.77;;;1.00;99.90;;;;;;6205872;23;20190;-83
2023/04/05 02:23:54;;;;;;;1.27;1.27;;;0.90;99.90;;;;;;6231191;23;20190;-83
2023/04/05 02:26:20;;;;;;;2.17;2.07;;;0.90;99.90;;;;;;6207564;23;20489;-82
2023/04/05 02:28:46;;;;;;;1.23;1.23;;;0.90;99.90;;;;;;6180828;23;20165;-83
2023/04/05 02:31:12;;;;;;;1.57;1.50;;;0.90;99.90;;;;;;6208455;23;20162;-85
2023/04/05 02:33:39;;;;;;;1.27;1.17;;;0.80;99.90;;;;;;6207352;23;20230;-83
2023/04/05 02:36:08;;;;;;;0.60;0.60;;;0.70;99.90;;;;;;6207675;23;20205;-83
2023/04/05 02:38:35;;;;;;;1.00;1.00;;;0.70;99.90;;;;;;6205763;23;20186;-83
2023/04/05 02:41:01;;;;;;;0.67;0.67;;;0.60;99.90;;;;;;6206050;23;20189;-84
2023/04/05 02:43:27;;;;;;;1.37;1.27;;;0.50;99.90;;;;;;6207599;23;20186;-82
2023/04/05 02:45:53;;;;;;;1.00;1.00;;;0.50;99.90;;;;;;6206034;23;20259;-86
2023/04/05 02:48:19;;;;;;;0.93;0.90;;;0.40;99.90;;;;;;6231116;23;20189;-83
2023/04/05 02:50:48;;;;;;;4.00;3.13;;;0.40;99.90;;;;;;6206063;23;20201;-83
2023/04/05 02:53:18;;;;;;;1.40;1.40;;;0.40;99.90;;;;;;6206833;23;20706;-83
2023/04/05 02:55:54;;;;;;;2.50;2.40;;;0.40;99.90;;;;;;6207277;23;20177;-85
2023/04/05 02:58:20;;;;;;;1.43;1.30;;;0.50;99.90;;;;;;6207926;23;20236;-87
2023/04/05 03:00:50;;;;;;;0.90;0.90;;;0.40;99.90;;;;;;6206000;23;20276;-82
2023/04/05 03:03:17;;;;;;;2.50;2.30;;;0.40;99.90;;;;;;6205551;23;20220;-84
2023/04/05 03:05:43;;;;;;;0.80;0.80;;;0.40;99.90;;;;;;6206989;23;20198;-84
2023/04/05 03:08:17;;;;;;;1.93;1.83;;;0.40;99.90;;;;;;6207414;23;20221;-83
2023/04/05 03:10:46;;;;;;;0.93;0.93;;;0.40;99.90;;;;;;6205702;23;20153;-84
2023/04/05 03:13:13;;;;;;;1.57;1.47;;;0.30;99.90;;;;;;6207765;23;21063;-84
2023/04/05 03:15:39;;;;;;;1.57;1.47;;;0.30;99.90;;;;;;6205233;23;20205;-85
2023/04/05 03:18:05;;;;;;;1.47;0.97;;;0.30;99.90;;;;;;6205733;23;20201;-83
2023/04/05 03:20:39;;;;;;;0.70;0.70;;;0.30;99.90;;;;;;6205399;23;20196;-83
2023/04/05 03:23:07;;;;;;;0.80;0.80;;;0.20;99.90;;;;;;6207437;23;20269;-82
2023/04/05 03:25:35;;;;;;;0.73;0.73;;;0.10;99.90;;;;;;6205352;23;20504;-81
2023/04/05 03:28:04;;;;;;;0.70;0.70;;;0.00;99.90;;;;;;6206126;23;20154;-83
2023/04/05 03:30:34;;;;;;;1.53;1.43;;;0.00;99.90;;;;;;6204879;23;20197;-85
2023/04/05 03:33:01;;;;;;;0.80;0.80;;;0.00;99.90;;;;;;6206446;23;20244;-83
2023/04/05 03:35:28;;;;;;;1.03;0.90;;;0.00;99.90;;;;;;6206559;23;20186;-83
2023/04/05 03:37:54;;;;;;;1.60;1.00;;;0.00;99.90;;;;;;6206527;23;20225;-84
2023/04/05 03:40:21;;;;;;;1.33;1.33;;;0.10;99.90;;;;;;6206779;23;20238;-83
2023/04/05 03:42:47;;;;;;;1.53;1.43;;;0.10;99.90;;;;;;6205361;23;20205;-83
2023/04/05 03:45:13;;;;;;;0.67;0.67;;;0.10;99.90;;;;;;6206497;23;20186;-85
2023/04/05 03:47:38;;;;;;;1.27;1.17;;;0.10;99.90;;;;;;6230213;23;20221;-84
2023/04/05 03:50:05;;;;;;;0.93;0.93;;;0.10;99.90;;;;;;6204842;23;20193;-86
2023/04/05 03:52:31;;;;;;;0.50;0.50;;;0.10;99.90;;;;;;6230074;23;20151;-82
2023/04/05 03:54:56;;;;;;;0.67;0.67;;;0.00;99.90;;;;;;6205343;23;20205;-83
2023/04/05 03:57:22;;;;;;;0.70;0.70;;;0.10;99.90;;;;;;6201203;23;20277;-87
2023/04/05 03:59:48;;;;;;;1.27;0.97;;;0.10;99.90;;;;;;6202747;23;20190;-83
2023/04/05 04:02:14;;;;;;;1.53;1.50;;;0.10;99.90;;;;;;6202967;23;20961;-86
2023/04/05 04:04:40;;;;;;;0.57;0.57;;;0.00;99.90;;;;;;6226481;23;20173;-83
2023/04/05 04:07:06;;;;;;;0.40;0.40;;;-0.10;99.90;;;;;;6201780;23;20474;-82
2023/04/05 04:09:31;;;;;;;1.07;1.07;;;0.00;99.90;;;;;;6201254;23;20186;-85
2023/04/05 04:11:57;;;;;;;0.90;0.90;;;0.10;99.90;;;;;;6226699;23;20635;-85
2023/04/05 04:14:23;;;;;;;0.63;0.63;;;0.10;99.90;;;;;;6202075;23;20202;-88
2023/04/05 04:16:49;;;;;;;0.77;0.77;;;0.10;99.90;;;;;;6200968;23;20154;-81
2023/04/05 04:19:17;;;;;;;1.00;1.00;;;0.10;99.90;;;;;;6205789;23;20163;-82
2023/04/05 04:21:50;;;;;;;0.90;0.90;;;0.10;99.90;;;;;;6228599;23;20700;-83
2023/04/05 04:24:17;;;;;;;1.40;1.23;;;0.00;99.90;;;;;;6203989;23;20197;-83
2023/04/05 04:26:47;;;;;;;1.40;1.30;;;0.00;99.90;;;;;;6203156;23;20194;-85
2023/04/05 04:29:15;;;;;;;1.00;0.90;;;0.00;99.90;;;;;;6227709;23;20247;-83
2023/04/05 04:31:44;;;;;;;0.50;0.50;;;-0.10;99.90;;;;;;6205666;23;20158;-85
2023/04/05 04:34:12;;;;;;;1.03;1.03;;;-0.20;99.90;;;;;;6230642;23;20269;-84
2023/04/05 04:36:41;;;;;;;1.40;1.30;;;-0.20;99.90;;;;;;6206868;23;20198;-83
2023/04/05 04:39:09;;;;;;;1.77;1.33;;;-0.30;99.90;;;;;;6202360;23;20269;-83
2023/04/05 04:41:37;;;;;;;0.70;0.70;;;-0.20;99.90;;;;;;6202216;23;20194;-83
2023/04/05 04:44:03;;;;;;;1.40;1.20;;;-0.20;99.90;;;;;;6227087;23;20580;-86
2023/04/05 04:46:33;;;;;;;1.83;1.77;;;-0.10;99.90;;;;;;6203733;23;20162;-86
2023/04/05 04:49:05;;;;;;;2.20;1.93;;;0.00;99.90;;;;;;6204706;23;20462;-88
2023/04/05 04:51:37;;;;;;;6.43;2.97;;;0.00;99.90;;;;;;6227469;23;20197;-88
2023/04/05 04:54:02;;;;;;;1.53;1.43;;;-0.10;99.90;;;;;;6203666;23;20209;-83
2023/04/05 04:56:28;;;;;;;4.27;3.27;;;-0.10;99.90;;;;;;6189980;23;20629;-86
2023/04/05 04:58:55;;;;;;;3.73;3.53;;;-0.10;99.90;;;;;;6171677;23;20190;-85
2023/04/05 05:01:23;;;;;;;2.07;1.93;;;-0.10;99.90;;;;;;6174353;23;20162;-85
2023/04/05 05:03:50;;;;;;;1.73;1.60;;;-0.20;99.90;;;;;;6197753;23;20194;-83
2023/04/05 05:06:18;;;;;;;1.90;1.50;;;-0.10;99.90;;;;;;6173999;23;20301;-84
2023/04/05 05:08:45;;;;;;;2.03;1.93;;;-0.10;99.90;;;;;;6172389;23;20426;-87
2023/04/05 05:11:11;;;;;;;0.67;0.67;;;-0.10;99.90;;;;;;6173084;23;20190;-85
2023/04/05 05:13:36;;;;;;;2.13;1.27;;;0.00;99.90;;;;;;6172415;23;20242;-88
2023/04/05 05:16:03;;;;;;;0.93;0.93;;;0.00;99.90;;;;;;6175126;23;20211;-86
2023/04/05 05:18:29;;;;;;;0.63;0.63;;;0.20;99.90;;;;;;6174297;23;20635;-85
2023/04/05 05:20:55;;;;;;;2.47;1.23;;;1.00;99.90;;;;;;6172505;23;20289;-84
2023/04/05 05:23:20;;;;;;;4.10;2.83;;;2.30;99.90;;;;;;6173868;23;20579;-85
2023/04/05 05:25:46;;;;;;;2.93;1.57;;;2.90;99.90;;;;;;6174046;23;20590;-85
2023/04/05 05:28:12;;;;;;;3.10;2.90;;;3.60;99.90;;;;;;6173416;23;20899;-85
2023/04/05 05:30:38;;;;;;;1.03;1.03;;;4.00;99.90;;;;;;6172721;23;20249;-85
2023/04/05 05:33:04;;;;;;;0.93;0.93;;;4.40;99.90;;;;;;6172472;23;20191;-87
2023/04/05 05:35:29;;;;;;;3.73;3.07;;;4.50;99.90;;;;;;6172272;23;20195;-85
2023/04/05 05:37:55;;;;;;;1.17;1.17;;;4.30;99.90;;;;;;6148416;23;20219;-86
2023/04/05 05:40:21;;;;;;;1.53;1.50;;;4.10;99.90;;;;;;6173061;23;20155;-84
2023/04/05 05:42:46;;;;;;;1.37;1.27;;;4.70;99.90;;;;;;6173739;23;20203;-88
2023/04/05 05:45:12;;;;;;;1.63;1.60;;;5.50;99.90;;;;;;6174514;23;20202;-84
2023/04/05 05:47:38;;;;;;;1.83;1.60;;;6.40;99.90;;;;;;6171655;23;20491;-86
2023/04/05 05:50:05;;;;;;;2.40;2.20;;;7.30;99.90;;;;;;6174378;23;20605;-84
2023/04/05 05:52:30;;;;;;;2.20;2.10;;;7.80;99.90;;;;;;6172130;23;20163;-85
2023/04/05 05:54:56;;;;;;;3.10;2.90;;;8.20;99.90;;;;;;6172094;23;20250;-88
2023/04/05 05:57:22;;;;;;;2.20;2.07;;;9.10;99.90;;;;;;6172434;23;20199;-84
2023/04/05 05:59:48;;;;;;;2.37;2.13;;;10.20;99.90;;;;;;6159307;23;20194;-83
2023/04/05 06:02:13;;;;;;;6.40;2.70;;;11.50;99.90;;;;;;6177323;23;20196;-84
2023/04/05 06:04:39;;;;;;;2.90;2.23;;;12.70;99.90;;;;;;6149135;23;20166;-84
2023/04/05 06:07:05;;;;;;;6.40;3.67;;;13.80;99.90;;;;;;6199388;23;20197;-82
2023/04/05 06:09:34;;;;;;;2.93;1.50;;;14.30;99.90;;;;;;6175572;23;20249;-85
2023/04/05 06:12:00;;;;;;;2.97;2.17;;;14.80;99.90;;;;;;6174202;23;20257;-82
2023/04/05 06:14:27;;;;;;;3.97;3.57;;;15.50;99.90;;;;;;6175207;23;20207;-82
2023/04/05 06:16:53;;;;;;;2.20;2.10;;;16.00;99.90;;;;;;6174258;23;20270;-85
2023/04/05 06:19:18;;;;;;;2.77;1.83;;;16.70;99.90;;;;;;6176465;23;20195;-82
2023/04/05 06:21:44;;;;;;;2.57;2.37;;;16.70;99.90;;;;;;6173754;23;20191;-82
2023/04/05 06:24:10;;;;;;;3.80;3.23;;;16.30;99.90;;;;;;6173589;23;20535;-82
2023/04/05 06:26:36;;;;;;;4.57;2.43;;;14.80;99.90;;;;;;6173890;23;20517;-83
2023/04/05 06:29:01;;;;;;;4.73;2.17;;;13.00;99.90;;;;;;6149844;23;20210;-82
2023/04/05 06:31:32;;;;;;;3.30;2.80;;;12.20;99.90;;;;;;6173226;23;20238;-85
2023/04/05 06:33:57;;;;;;;3.87;2.17;;;11.60;99.90;;;;;;6175984;23;20197;-82
2023/04/05 06:36:23;;;;;;;2.93;2.37;;;11.00;99.90;;;;;;6174838;23;20229;-83
2023/04/05 06:38:50;;;;;;;1.53;1.43;;;10.70;99.90;;;;;;6173723;23;20275;-82
2023/04/05 06:41:16;;;;;;;4.47;2.63;;;10.50;99.90;;;;;;6173679;23;20515;-84
2023/04/05 06:43:41;;;;;;;4.00;2.27;;;10.30;99.90;;;;;;6173650;23;20198;-84
2023/04/05 06:46:08;;;;;;;3.90;3.30;;;9.60;99.90;;;;;;6198910;23;20459;-86
2023/04/05 06:48:34;;;;;;;5.73;3.83;;;9.10;99.90;;;;;;6174096;23;20191;-84
2023/04/05 06:51:01;;;;;;;3.63;3.27;;;9.40;99.90;;;;;;6175850;23;20249;-84
2023/04/05 06:53:27;;;;;;;2.73;2.10;;;10.10;99.90;;;;;;6174918;23;20224;-84
2023/04/05 06:55:55;;;;;;;5.10;3.37;;;11.40;99.90;;;;;;6199233;23;20187;-83
2023/04/05 06:58:22;;;;;;;9.33;4.10;;;12.80;99.90;;;;;;6199227;23;20645;-83
2023/04/05 07:00:48;;;;;;;7.43;3.33;;;13.60;99.90;;;;;;6174919;23;20614;-86
2023/04/05 07:03:15;;;;;;;4.00;3.07;;;14.40;99.90;;;;;;6173633;23;20209;-84
2023/04/05 07:05:48;;;;;;;4.97;3.33;;;14.70;99.90;;;;;;6198586;23;20240;-87
2023/04/05 07:08:14;;;;;;;4.00;3.17;;;14.60;99.90;;;;;;6173666;23;20527;-84
2023/04/05 07:10:40;;;;;;;3.97;3.13;;;14.60;99.90;;;;;;6173053;23;20466;-85
2023/04/05 07:13:06;;;;;;;5.43;3.53;;;14.50;99.90;;;;;;6175070;23;20214;-88
2023/04/05 07:15:32;;;;;;;6.97;4.07;;;13.90;99.90;;;;;;6175118;23;20241;-84
2023/04/05 07:17:57;;;;;;;5.57;3.90;;;13.00;99.90;;;;;;6173614;23;20195;-84
2023/04/05 07:20:23;;;;;;;4.90;4.03;;;12.30;99.90;;;;;;6199250;23;20216;-88
2023/04/05 07:22:49;;;;;;;5.73;3.57;;;12.30;99.90;;;;;;6173481;23;20159;-86
2023/04/05 07:25:15;;;;;;;8.90;4.17;;;12.60;99.90;;;;;;6175049;23;20155;-84
2023/04/05 07:27:40;;;;;;;8.00;4.43;;;12.90;99.90;;;;;;6173688;23;20198;-87
2023/04/05 07:30:07;;;;;;;7.53;4.47;;;12.80;99.90;;;;;;6174169;23;20276;-84
2023/04/05 07:32:33;;;;;;;6.00;4.13;;;12.40;99.90;;;;;;6173604;23;20198;-83
2023/04/05 07:34:59;;;;;;;6.33;3.63;;;11.30;99.90;;;;;;6199067;23;20183;-85
2023/04/05 07:37:26;;;;;;;6.00;4.03;;;11.70;99.90;;;;;;6174579;23;20598;-84
2023/04/05 07:39:52;;;;;;;6.80;4.40;;;12.70;99.90;;;;;;6173652;23;20610;-84
2023/04/05 07:42:20;;;;;;;4.87;3.97;;;13.00;99.90;;;;;;6173872;23;20273;-83
2023/04/05 07:44:46;;;;;;;5.47;3.80;;;12.90;99.90;;;;;;6175151;23;20202;-86
2023/04/05 07:47:12;;;;;;;6.90;3.50;;;13.10;99.90;;;;;;6175200;23;20218;-88
2023/04/05 07:49:37;;;;;;;6.03;3.73;;;13.00;99.90;;;;;;6173556;23;20156;-85
2023/04/05 07:52:05;;;;;;;6.23;4.07;;;13.00;99.90;;;;;;6199288;23;20163;-87
2023/04/05 07:54:34;;;;;;;6.03;3.23;;;13.10;99.90;;;;;;6175505;23;20210;-83
2023/04/05 07:57:01;;;;;;;6.33;3.87;;;13.00;99.90;;;;;;6173724;23;20249;-84
2023/04/05 07:59:27;;;;;;;5.43;3.63;;;13.10;99.90;;;;;;6175440;23;20208;-83
2023/04/05 08:01:53;;;;;;;8.43;3.97;;;12.70;99.90;;;;;;6173850;23;20186;-84
2023/04/05 08:04:19;;;;;;;5.30;3.73;;;12.00;99.90;;;;;;6174145;23;20159;-83
2023/04/05 08:06:46;;;;;;;4.23;3.40;;;11.40;99.90;;;;;;6173789;23;20269;-84
2023/04/05 08:09:11;;;;;;;4.03;3.00;;;11.60;99.90;;;;;;6175078;23;20222;-84
2023/04/05 08:11:37;;;;;;;4.13;3.47;;;11.70;99.90;;;;;;6173590;23;20206;-86
2023/04/05 08:14:04;;;;;;;9.07;4.40;;;12.40;99.90;;;;;;6175418;23;20226;-85
2023/04/05 08:16:30;;;;;;;4.13;2.70;;;12.80;99.90;;;;;;6174778;23;20209;-89
2023/04/05 08:18:55;;;;;;;4.67;3.23;;;12.70;99.90;;;;;;6198359;23;20194;-84
2023/04/05 08:21:22;;;;;;;3.97;2.67;;;12.10;99.90;;;;;;6173086;23;20569;-88
2023/04/05 08:23:49;;;;;;;3.57;2.60;;;11.90;99.90;;;;;;6190905;23;20277;-85
2023/04/05 08:26:15;;;;;;;5.07;3.27;;;11.80;99.90;;;;;;6203858;23;20190;-87
2023/04/05 08:28:41;;;;;;;2.77;2.57;;;12.30;99.90;;;;;;6203310;23;20158;-84
2023/04/05 08:31:07;;;;;;;5.27;3.43;;;13.10;99.90;;;;;;6205504;23;20236;-85
2023/04/05 08:33:33;;;;;;;4.00;3.10;;;13.20;99.90;;;;;;6203353;23;20248;-85
2023/04/05 08:36:08;;;;;;;4.03;3.23;;;13.30;99.90;;;;;;6205072;23;20605;-83
2023/04/05 08:38:35;;;;;;;5.13;3.47;;;13.50;99.90;;;;;;6228098;23;20730;-88
2023/04/05 08:41:22;;;;;;;4.97;3.30;;;13.40;99.90;;;;;;6204653;23;20209;-86
2023/04/05 08:44:04;;;;;;;11.80;4.00;;;14.10;99.90;;;;;;6204757;23;20672;-84
2023/04/05 08:46:31;;;;;;;5.43;3.50;;;14.50;99.90;;;;;;6204973;23;20153;-90
2023/04/05 08:48:58;;;;;;;4.13;3.40;;;14.80;99.90;;;;;;6203579;23;20480;-84
2023/04/05 08:51:25;;;;;;;3.20;2.80;;;15.30;99.90;;;;;;6203294;23;20225;-85
2023/04/05 08:53:51;;;;;;;6.03;2.87;;;15.00;99.90;;;;;;6204041;23;20228;-84
2023/04/05 08:56:35;;;;;;;6.17;3.60;;;15.00;99.90;;;;;;6204742;23;20232;-86
2023/04/05 08:59:06;;;;;;;3.90;3.20;;;14.70;99.90;;;;;;6203096;23;20629;-83
2023/04/05 09:01:35;;;;;;;3.93;3.30;;;14.40;99.90;;;;;;6227775;23;20233;-84
2023/04/05 09:04:05;;;;;;;5.47;3.87;;;14.70;99.90;;;;;;6228712;23;20151;-86
2023/04/05 09:06:34;;;;;;;8.17;2.90;;;15.10;99.90;;;;;;6202727;23;20201;-86
2023/04/05 09:09:00;;;;;;;3.20;2.90;;;15.00;99.90;;;;;;6203057;23;20193;-84
2023/04/05 09:11:26;;;;;;;3.73;3.30;;;13.90;99.90;;;;;;6203731;23;20197;-84
2023/04/05 09:13:52;;;;;;;4.50;3.00;;;13.30;99.90;;;;;;6203755;23;20201;-88
2023/04/05 09:16:19;;;;;;;5.73;3.30;;;12.70;99.90;;;;;;6203511;23;20202;-85
2023/04/05 09:18:44;;;;;;;4.13;3.17;;;13.40;99.90;;;;;;6204112;23;20256;-87
2023/04/05 09:21:10;;;;;;;6.23;3.10;;;13.10;99.90;;;;;;6203043;23;20629;-84
2023/04/05 09:23:36;;;;;;;4.83;3.30;;;12.00;99.90;;;;;;6202492;23;20542;-87
2023/04/05 09:26:24;;;;;;;7.37;3.07;;;12.20;99.90;;;;;;6204685;23;20269;-86
2023/04/05 09:28:50;;;;;;;3.67;2.23;;;12.30;99.90;;;;;;6203270;23;20147;-86
2023/04/05 09:31:34;;;;;;;4.97;3.40;;;12.40;99.90;;;;;;6203952;23;20216;-87
2023/04/05 09:34:04;;;;;;;3.33;3.03;;;13.30;99.90;;;;;;6229312;23;20649;-85
2023/04/05 09:36:33;;;;;;;3.30;2.77;;;14.30;99.90;;;;;;6205047;23;20194;-86
2023/04/05 09:39:08;;;;;;;5.80;3.63;;;14.60;99.90;;;;;;6204885;23;20648;-85
2023/04/05 09:41:35;;;;;;;7.83;3.40;;;13.90;99.90;;;;;;6206170;23;20628;-88
2023/04/05 09:44:01;;;;;;;3.83;3.10;;;14.20;99.90;;;;;;6206641;23;20203;-88
2023/04/05 09:46:36;;;;;;;3.37;3.00;;;15.20;99.90;;;;;;6205516;23;20166;-90
2023/04/05 09:49:02;;;;;;;5.13;3.43;;;15.00;99.70;;;;;;6177468;23;20305;-88
2023/04/05 09:51:33;;;;;;;4.43;3.13;;;14.30;99.90;;;;;;6176597;23;20600;-87
2023/04/05 09:54:07;;;;;;;4.53;3.30;;;13.60;99.90;;;;;;6174382;23;20215;-86
2023/04/05 09:56:40;;;;;;;6.60;3.33;;;13.30;99.90;;;;;;6175248;23;20195;-89
2023/04/05 09:59:09;;;;;;;3.93;3.40;;;12.50;99.90;;;;;;6174826;23;20518;-89
2023/04/05 10:01:36;;;;;;;5.30;4.10;;;13.30;99.90;;;;;;6149993;23;20166;-86
2023/04/05 10:04:02;;;;;;;5.23;3.50;;;12.50;99.90;;;;;;6150687;23;20170;-87
2023/04/05 10:06:34;;;;;;;3.30;2.83;;;12.50;99.90;;;;;;6175182;23;20194;-85
2023/04/05 10:09:00;;;;;;;6.83;3.63;;;12.70;99.90;;;;;;6199602;23;20225;-86
2023/04/05 10:11:27;;;;;;;4.10;3.70;;;13.70;99.90;;;;;;6155912;23;20191;-89
2023/04/05 10:13:53;;;;;;;6.17;3.57;;;14.80;99.90;;;;;;6178566;23;20285;-87
2023/04/05 10:16:22;;;;;;;4.60;3.27;;;14.30;99.90;;;;;;6205334;23;20201;-86
2023/04/05 10:18:52;;;;;;;5.70;3.97;;;13.30;99.90;;;;;;6206255;23;20190;-85
2023/04/05 10:21:22;;;;;;;5.43;3.40;;;12.40;99.90;;;;;;6229589;23;20194;-85
2023/04/05 10:23:57;;;;;;;5.17;2.63;;;12.00;99.90;;;;;;6229734;23;20208;-86
2023/04/05 10:26:39;;;;;;;4.43;3.33;;;12.10;99.90;;;;;;6206078;23;20538;-86
2023/04/05 10:29:10;;;;;;;3.80;3.03;;;12.20;99.90;;;;;;6206233;23;20201;-91
2023/04/05 10:32:28;;;;;;;6.27;2.93;;;11.90;99.90;;;;;;6205684;23;20493;-91
2023/04/05 10:35:07;;;;;;;6.50;2.87;;;12.70;99.90;;;;;;6194401;23;20209;-89
2023/04/05 10:37:58;;;;;;;4.50;3.80;;;14.00;99.90;;;;;;6205457;23;20169;-87
2023/04/05 10:40:29;;;;;;;3.93;2.30;;;14.20;99.90;;;;;;6206390;23;20150;-86
2023/04/05 10:42:55;;;;;;;4.83;2.73;;;13.60;99.70;;;;;;6205466;23;20214;-86
2023/04/05 10:45:22;;;;;;;7.70;2.83;;;13.20;97.40;;;;;;6205643;23;20613;-89
2023/04/05 10:47:56;;;;;;;7.03;2.63;;;13.30;98.80;;;;;;6205662;23;20236;-87
2023/04/05 10:50:23;;;;;;;5.67;3.07;;;13.00;97.00;;;;;;6206277;23;20192;-87
2023/04/05 10:52:51;;;;;;;2.23;2.03;;;13.90;99.90;;;;;;6204406;23;20174;-89
2023/04/05 10:55:18;;;;;;;4.20;2.43;;;14.30;95.50;;;;;;6206371;23;20267;-88
2023/04/05 10:57:45;;;;;;;3.10;1.97;;;12.50;96.40;;;;;;6206938;23;20194;-88
2023/04/05 11:00:12;;;;;;;4.00;3.07;;;11.90;99.30;;;;;;6230388;23;20194;-87
2023/04/05 11:02:38;;;;;;;4.73;2.97;;;11.90;99.90;;;;;;6204991;23;20201;-90
2023/04/05 11:05:04;;;;;;;3.13;2.30;;;12.10;99.90;;;;;;6205626;23;20272;-91
2023/04/05 11:07:58;;;;;;;4.50;2.60;;;12.60;99.90;;;;;;6206925;23;20585;-86
2023/04/05 11:10:25;;;;;;;5.87;2.77;;;11.50;99.90;;;;;;6203068;23;20204;-87
2023/04/05 11:12:51;;;;;;;4.13;2.70;;;11.50;99.90;;;;;;6204305;23;20197;-89
2023/04/05 11:15:29;;;;;;;4.23;2.30;;;11.40;98.70;;;;;;6206020;23;20221;-87
2023/04/05 11:18:15;;;;;;;3.60;2.43;;;11.90;98.60;;;;;;6205579;23;20205;-87
2023/04/05 11:20:44;;;;;;;4.07;2.57;;;12.90;97.50;;;;;;6205897;23;20198;-85
2023/04/05 11:23:10;;;;;;;5.83;3.00;;;12.80;99.10;;;;;;6206015;23;20206;-86
2023/04/05 11:25:39;;;;;;;9.10;3.97;;;12.10;99.90;;;;;;6205570;23;20161;-86
2023/04/05 11:28:05;;;;;;;4.03;2.90;;;12.00;99.90;;;;;;6229610;23;20178;-87
2023/04/05 11:30:47;;;;;;;4.20;3.10;;;11.80;99.90;;;;;;6229703;23;20190;-86
2023/04/05 11:33:38;;;;;;;5.20;3.40;;;11.30;99.90;;;;;;6204709;23;20205;-85
2023/04/05 11:36:03;;;;;;;3.87;2.40;;;11.40;99.90;;;;;;6205701;23;20628;-85
2023/04/05 11:38:29;;;;;;;3.90;2.73;;;12.10;99.90;;;;;;6204901;23;20201;-89
2023/04/05 11:41:10;;;;;;;5.10;3.03;;;12.20;99.90;;;;;;6203312;23;20193;-88
2023/04/05 11:43:41;;;;;;;3.73;3.37;;;11.30;99.90;;;;;;6205239;23;20142;-86
2023/04/05 11:46:07;;;;;;;6.13;3.07;;;11.10;99.90;;;;;;6206803;23;20157;-88
2023/04/05 11:48:33;;;;;;;4.33;2.83;;;11.10;99.90;;;;;;6204676;23;20221;-85
2023/04/05 11:50:59;;;;;;;4.70;2.73;;;11.10;99.90;;;;;;6205085;23;20193;-85
2023/04/05 11:53:25;;;;;;;3.07;2.37;;;11.90;99.90;;;;;;6229178;23;20211;-85
2023/04/05 11:55:51;;;;;;;5.77;2.77;;;12.00;99.90;;;;;;6205584;23;20302;-85
2023/04/05 11:58:23;;;;;;;3.57;2.27;;;12.30;99.90;;;;;;6204535;23;20230;-85
2023/04/05 12:01:01;;;;;;;3.93;3.13;;;11.30;99.90;;;;;;6203860;23;20202;-85
2023/04/05 12:03:28;;;;;;;3.10;2.47;;;10.90;99.90;;;;;;6205811;23;20194;-89
2023/04/05 12:05:55;;;;;;;3.13;2.10;;;11.20;99.90;;;;;;6228831;23;20200;-85
2023/04/05 12:08:22;;;;;;;3.20;2.50;;;11.90;99.90;;;;;;6229011;23;20196;-84
2023/04/05 12:11:00;;;;;;;3.03;2.43;;;12.40;99.90;;;;;;6229972;23;20158;-86
2023/04/05 12:13:28;;;;;;;3.37;3.07;;;12.70;99.90;;;;;;6229578;23;20225;-86
2023/04/05 12:15:57;;;;;;;6.20;3.20;;;12.30;99.90;;;;;;6205379;23;20206;-91
2023/04/05 12:18:25;;;;;;;4.23;2.37;;;12.30;99.90;;;;;;6205496;23;20205;-87
2023/04/05 12:20:52;;;;;;;5.50;2.50;;;13.00;99.90;;;;;;6204955;23;20198;-85
2023/04/05 12:23:18;;;;;;;2.53;2.33;;;13.70;99.90;;;;;;6228623;23;20681;-86
2023/04/05 12:25:48;;;;;;;3.80;3.30;;;14.00;99.90;;;;;;6203799;23;20154;-87
2023/04/05 12:28:14;;;;;;;4.33;3.10;;;14.50;99.90;;;;;;6206221;23;20197;-90
2023/04/05 12:30:58;;;;;;;4.20;2.50;;;14.30;99.50;;;;;;6203206;23;20217;-86
2023/04/05 12:33:31;;;;;;;3.03;2.73;;;12.80;99.90;;;;;;6204807;23;20206;-92
2023/04/05 12:35:58;;;;;;;3.53;2.80;;;11.60;99.90;;;;;;6229093;23;20201;-87
2023/04/05 12:38:28;;;;;;;3.57;2.33;;;11.40;99.90;;;;;;6205094;23;20281;-90
2023/04/05 12:40:59;;;;;;;4.60;2.63;;;11.90;99.90;;;;;;6228465;23;20509;-91
2023/04/05 12:43:24;;;;;;;3.93;2.40;;;11.60;99.90;;;;;;6229033;23;20146;-92
2023/04/05 12:45:54;;;;;;;3.87;2.77;;;11.40;99.90;;;;;;6205070;23;20625;-88
2023/04/05 12:48:22;;;;;;;9.27;2.57;;;11.40;99.90;;;;;;6228219;23;20193;-86
2023/04/05 12:50:53;;;;;;;2.87;2.03;;;11.60;99.90;;;;;;6228466;23;20217;-92
2023/04/05 12:53:22;;;;;;;3.73;2.50;;;11.90;99.90;;;;;;6228777;23;20672;-86
2023/04/05 12:55:52;;;;;;;3.27;2.60;;;11.90;99.90;;;;;;6204829;23;20150;-88
2023/04/05 12:58:19;;;;;;;4.03;3.00;;;12.40;99.90;;;;;;6205718;23;20155;-84